Chester, Massachusetts
Current Conditions -  °F | °C
As of 4:53 PM on Wednesday 28 Jan 2015 (Local Time) from KBAF Reporting Station
Clear Clear  
Wind Chill: 13°   Ceiling: Unl
Heat Index: 25°   Visibility: 10mi
Dew Point:   Wind: 15mph
Humidity: 41%   Direction: 320°NW
Pressure: 30.1"   Gusts: NA
Location:  42.28°N, 72.98°W
Report Text: KBAF 282153Z 32013KT 10SM CLR M04/M16 A3010 RMK AO2 SLP200 T10391156
Loading
Personal Weather Stations






























Interactive Weather Map New forecast layout! Learn more

10-Day Weather Forecast

Advertisements
Track Severe Weather on mobile